sensor_id;sensor_type;location;lat;lon;timestamp;P1;durP1;ratioP1;P2;durP2;ratioP2
48623;SDS011;34422;45.802;16.114;2022-10-31T00:01:14;89.22;;;35.88;;
48623;SDS011;34422;45.802;16.114;2022-10-31T00:03:43;63.22;;;30.77;;
48623;SDS011;34422;45.802;16.114;2022-10-31T00:06:10;39.30;;;26.42;;
48623;SDS011;34422;45.802;16.114;2022-10-31T00:08:37;72.82;;;29.85;;
48623;SDS011;34422;45.802;16.114;2022-10-31T00:11:03;60.28;;;27.48;;
48623;SDS011;34422;45.802;16.114;2022-10-31T00:16:01;54.45;;;25.88;;
48623;SDS011;34422;45.802;16.114;2022-10-31T00:18:28;56.97;;;29.30;;
48623;SDS011;34422;45.802;16.114;2022-10-31T00:21:02;37.47;;;26.58;;
48623;SDS011;34422;45.802;16.114;2022-10-31T00:23:30;89.63;;;31.42;;
48623;SDS011;34422;45.802;16.114;2022-10-31T00:26:01;73.88;;;30.17;;
48623;SDS011;34422;45.802;16.114;2022-10-31T00:28:28;58.53;;;27.83;;
48623;SDS011;34422;45.802;16.114;2022-10-31T00:31:03;115.43;;;36.47;;
48623;SDS011;34422;45.802;16.114;2022-10-31T00:33:33;39.85;;;25.27;;
48623;SDS011;34422;45.802;16.114;2022-10-31T00:36:00;44.30;;;24.15;;
48623;SDS011;34422;45.802;16.114;2022-10-31T00:38:27;37.03;;;24.10;;
48623;SDS011;34422;45.802;16.114;2022-10-31T00:40:54;43.55;;;25.83;;
48623;SDS011;34422;45.802;16.114;2022-10-31T00:43:21;70.70;;;30.60;;
48623;SDS011;34422;45.802;16.114;2022-10-31T00:45:48;36.35;;;24.60;;
48623;SDS011;34422;45.802;16.114;2022-10-31T00:48:15;35.80;;;24.20;;
48623;SDS011;34422;45.802;16.114;2022-10-31T00:50:42;99.78;;;34.05;;
48623;SDS011;34422;45.802;16.114;2022-10-31T00:53:09;52.40;;;28.50;;
48623;SDS011;34422;45.802;16.114;2022-10-31T00:55:35;33.22;;;23.05;;
48623;SDS011;34422;45.802;16.114;2022-10-31T00:58:02;59.20;;;30.60;;
48623;SDS011;34422;45.802;16.114;2022-10-31T01:00:29;58.83;;;28.52;;
48623;SDS011;34422;45.802;16.114;2022-10-31T01:02:56;85.25;;;30.95;;
48623;SDS011;34422;45.802;16.114;2022-10-31T01:05:22;48.90;;;27.75;;
48623;SDS011;34422;45.802;16.114;2022-10-31T01:07:49;52.42;;;25.95;;
48623;SDS011;34422;45.802;16.114;2022-10-31T01:10:16;95.07;;;35.53;;
48623;SDS011;34422;45.802;16.114;2022-10-31T01:12:45;64.22;;;32.45;;
48623;SDS011;34422;45.802;16.114;2022-10-31T01:15:14;59.22;;;29.95;;
48623;SDS011;34422;45.802;16.114;2022-10-31T01:17:42;54.65;;;28.15;;
48623;SDS011;34422;45.802;16.114;2022-10-31T01:20:09;51.08;;;28.55;;
48623;SDS011;34422;45.802;16.114;2022-10-31T01:22:37;45.95;;;25.63;;
48623;SDS011;34422;45.802;16.114;2022-10-31T01:25:04;59.67;;;27.70;;
48623;SDS011;34422;45.802;16.114;2022-10-31T01:27:32;101.63;;;29.83;;
48623;SDS011;34422;45.802;16.114;2022-10-31T01:29:59;128.82;;;32.85;;
48623;SDS011;34422;45.802;16.114;2022-10-31T01:32:26;101.78;;;32.65;;
48623;SDS011;34422;45.802;16.114;2022-10-31T01:34:55;67.47;;;27.95;;
48623;SDS011;34422;45.802;16.114;2022-10-31T01:37:22;78.93;;;28.83;;
48623;SDS011;34422;45.802;16.114;2022-10-31T01:39:48;58.05;;;26.00;;
48623;SDS011;34422;45.802;16.114;2022-10-31T01:42:17;48.33;;;24.52;;
48623;SDS011;34422;45.802;16.114;2022-10-31T01:47:29;75.85;;;27.58;;
48623;SDS011;34422;45.802;16.114;2022-10-31T01:50:01;63.75;;;25.40;;
48623;SDS011;34422;45.802;16.114;2022-10-31T01:52:36;71.13;;;26.45;;
48623;SDS011;34422;45.802;16.114;2022-10-31T01:55:10;97.93;;;29.10;;
48623;SDS011;34422;45.802;16.114;2022-10-31T01:57:42;134.25;;;32.85;;
48623;SDS011;34422;45.802;16.114;2022-10-31T02:00:13;108.43;;;32.85;;
48623;SDS011;34422;45.802;16.114;2022-10-31T02:02:41;104.20;;;32.60;;
48623;SDS011;34422;45.802;16.114;2022-10-31T02:05:10;68.00;;;27.52;;
48623;SDS011;34422;45.802;16.114;2022-10-31T02:07:44;155.43;;;38.38;;
48623;SDS011;34422;45.802;16.114;2022-10-31T02:10:19;187.55;;;38.95;;
48623;SDS011;34422;45.802;16.114;2022-10-31T02:12:48;165.02;;;35.70;;
48623;SDS011;34422;45.802;16.114;2022-10-31T02:15:18;104.35;;;31.45;;
48623;SDS011;34422;45.802;16.114;2022-10-31T02:17:45;44.25;;;23.88;;
48623;SDS011;34422;45.802;16.114;2022-10-31T02:20:15;137.00;;;36.92;;
48623;SDS011;34422;45.802;16.114;2022-10-31T02:30:41;114.85;;;35.72;;
48623;SDS011;34422;45.802;16.114;2022-10-31T02:33:30;90.40;;;32.55;;
48623;SDS011;34422;45.802;16.114;2022-10-31T02:44:10;55.72;;;26.50;;
48623;SDS011;34422;45.802;16.114;2022-10-31T02:52:21;119.57;;;34.00;;
48623;SDS011;34422;45.802;16.114;2022-10-31T02:54:51;133.82;;;36.00;;
48623;SDS011;34422;45.802;16.114;2022-10-31T02:57:20;76.97;;;28.00;;
48623;SDS011;34422;45.802;16.114;2022-10-31T02:59:56;225.48;;;42.03;;
48623;SDS011;34422;45.802;16.114;2022-10-31T03:03:10;90.45;;;32.92;;
48623;SDS011;34422;45.802;16.114;2022-10-31T03:13:11;94.00;;;32.78;;
48623;SDS011;34422;45.802;16.114;2022-10-31T03:15:59;135.00;;;32.40;;
48623;SDS011;34422;45.802;16.114;2022-10-31T03:23:51;46.13;;;24.73;;
48623;SDS011;34422;45.802;16.114;2022-10-31T03:26:21;341.25;;;48.00;;
48623;SDS011;34422;45.802;16.114;2022-10-31T03:31:23;77.88;;;26.48;;
48623;SDS011;34422;45.802;16.114;2022-10-31T03:33:56;36.95;;;22.83;;
48623;SDS011;34422;45.802;16.114;2022-10-31T03:36:26;52.55;;;24.35;;
48623;SDS011;34422;45.802;16.114;2022-10-31T03:38:56;137.43;;;32.97;;
48623;SDS011;34422;45.802;16.114;2022-10-31T03:41:25;227.25;;;43.65;;
48623;SDS011;34422;45.802;16.114;2022-10-31T03:43:57;73.95;;;26.55;;
48623;SDS011;34422;45.802;16.114;2022-10-31T03:46:28;153.63;;;34.67;;
48623;SDS011;34422;45.802;16.114;2022-10-31T03:48:55;221.13;;;40.42;;
48623;SDS011;34422;45.802;16.114;2022-10-31T03:51:25;64.90;;;25.83;;
48623;SDS011;34422;45.802;16.114;2022-10-31T03:53:57;99.65;;;27.63;;
48623;SDS011;34422;45.802;16.114;2022-10-31T03:56:35;120.72;;;29.70;;
48623;SDS011;34422;45.802;16.114;2022-10-31T03:59:50;227.23;;;37.03;;
48623;SDS011;34422;45.802;16.114;2022-10-31T04:02:00;57.28;;;23.23;;
48623;SDS011;34422;45.802;16.114;2022-10-31T04:04:32;111.07;;;26.65;;
48623;SDS011;34422;45.802;16.114;2022-10-31T04:07:01;212.43;;;34.83;;
48623;SDS011;34422;45.802;16.114;2022-10-31T04:09:29;97.13;;;27.98;;
48623;SDS011;34422;45.802;16.114;2022-10-31T04:12:00;133.50;;;29.33;;
48623;SDS011;34422;45.802;16.114;2022-10-31T04:14:32;300.60;;;42.30;;
48623;SDS011;34422;45.802;16.114;2022-10-31T04:17:02;332.67;;;45.80;;
48623;SDS011;34422;45.802;16.114;2022-10-31T04:19:32;179.10;;;31.30;;
48623;SDS011;34422;45.802;16.114;2022-10-31T04:21:59;148.10;;;30.65;;
48623;SDS011;34422;45.802;16.114;2022-10-31T04:24:26;302.00;;;43.85;;
48623;SDS011;34422;45.802;16.114;2022-10-31T04:26:53;55.53;;;21.75;;
48623;SDS011;34422;45.802;16.114;2022-10-31T04:29:19;118.82;;;30.33;;
48623;SDS011;34422;45.802;16.114;2022-10-31T04:31:46;46.60;;;22.35;;
48623;SDS011;34422;45.802;16.114;2022-10-31T04:34:13;39.10;;;21.88;;
48623;SDS011;34422;45.802;16.114;2022-10-31T04:36:40;149.30;;;32.00;;
48623;SDS011;34422;45.802;16.114;2022-10-31T04:39:06;70.55;;;26.10;;
48623;SDS011;34422;45.802;16.114;2022-10-31T04:41:33;47.83;;;22.73;;
48623;SDS011;34422;45.802;16.114;2022-10-31T04:44:00;102.82;;;27.27;;
48623;SDS011;34422;45.802;16.114;2022-10-31T04:46:27;86.75;;;26.38;;
48623;SDS011;34422;45.802;16.114;2022-10-31T04:48:54;197.63;;;34.20;;
48623;SDS011;34422;45.802;16.114;2022-10-31T04:51:21;106.88;;;27.05;;
48623;SDS011;34422;45.802;16.114;2022-10-31T04:53:47;102.97;;;26.95;;
48623;SDS011;34422;45.802;16.114;2022-10-31T04:56:14;55.28;;;23.08;;
48623;SDS011;34422;45.802;16.114;2022-10-31T04:58:41;95.45;;;26.83;;
48623;SDS011;34422;45.802;16.114;2022-10-31T05:01:09;112.20;;;28.30;;
48623;SDS011;34422;45.802;16.114;2022-10-31T05:03:36;204.80;;;32.38;;
48623;SDS011;34422;45.802;16.114;2022-10-31T05:06:02;254.50;;;39.28;;
48623;SDS011;34422;45.802;16.114;2022-10-31T05:08:29;154.02;;;32.78;;
48623;SDS011;34422;45.802;16.114;2022-10-31T05:10:59;214.23;;;35.63;;
48623;SDS011;34422;45.802;16.114;2022-10-31T05:13:27;175.32;;;33.83;;
48623;SDS011;34422;45.802;16.114;2022-10-31T05:15:54;107.63;;;27.95;;
48623;SDS011;34422;45.802;16.114;2022-10-31T05:18:21;206.68;;;33.50;;
48623;SDS011;34422;45.802;16.114;2022-10-31T05:20:48;276.98;;;35.45;;
48623;SDS011;34422;45.802;16.114;2022-10-31T05:23:15;328.20;;;40.83;;
48623;SDS011;34422;45.802;16.114;2022-10-31T05:25:42;144.38;;;28.17;;
48623;SDS011;34422;45.802;16.114;2022-10-31T05:28:09;31.60;;;18.55;;
48623;SDS011;34422;45.802;16.114;2022-10-31T05:30:36;208.68;;;49.90;;
48623;SDS011;34422;45.802;16.114;2022-10-31T05:33:02;141.63;;;29.30;;
48623;SDS011;34422;45.802;16.114;2022-10-31T05:35:30;44.83;;;25.15;;
48623;SDS011;34422;45.802;16.114;2022-10-31T05:37:59;255.45;;;49.80;;
48623;SDS011;34422;45.802;16.114;2022-10-31T05:40:26;198.35;;;38.28;;
48623;SDS011;34422;45.802;16.114;2022-10-31T05:42:54;168.23;;;32.92;;
48623;SDS011;34422;45.802;16.114;2022-10-31T05:45:22;36.38;;;19.67;;
48623;SDS011;34422;45.802;16.114;2022-10-31T05:47:50;194.90;;;32.58;;
48623;SDS011;34422;45.802;16.114;2022-10-31T05:50:21;124.13;;;24.85;;
48623;SDS011;34422;45.802;16.114;2022-10-31T05:53:22;60.20;;;18.55;;
48623;SDS011;34422;45.802;16.114;2022-10-31T05:55:42;190.73;;;30.00;;
48623;SDS011;34422;45.802;16.114;2022-10-31T05:58:10;104.28;;;23.30;;
48623;SDS011;34422;45.802;16.114;2022-10-31T06:00:37;118.57;;;24.48;;
48623;SDS011;34422;45.802;16.114;2022-10-31T06:03:05;89.55;;;24.13;;
48623;SDS011;34422;45.802;16.114;2022-10-31T06:05:34;228.38;;;34.08;;
48623;SDS011;34422;45.802;16.114;2022-10-31T06:08:01;38.67;;;17.48;;
48623;SDS011;34422;45.802;16.114;2022-10-31T06:10:28;129.10;;;28.17;;
48623;SDS011;34422;45.802;16.114;2022-10-31T06:12:55;255.88;;;38.00;;
48623;SDS011;34422;45.802;16.114;2022-10-31T06:15:22;344.65;;;43.25;;
48623;SDS011;34422;45.802;16.114;2022-10-31T06:18:03;59.33;;;17.42;;
48623;SDS011;34422;45.802;16.114;2022-10-31T06:20:31;29.48;;;16.67;;
48623;SDS011;34422;45.802;16.114;2022-10-31T06:22:59;274.38;;;39.63;;
48623;SDS011;34422;45.802;16.114;2022-10-31T06:25:26;44.00;;;19.70;;
48623;SDS011;34422;45.802;16.114;2022-10-31T06:27:53;43.85;;;20.48;;
48623;SDS011;34422;45.802;16.114;2022-10-31T06:30:20;113.63;;;24.48;;
48623;SDS011;34422;45.802;16.114;2022-10-31T06:32:47;192.73;;;29.85;;
48623;SDS011;34422;45.802;16.114;2022-10-31T06:35:15;78.32;;;20.95;;
48623;SDS011;34422;45.802;16.114;2022-10-31T06:37:43;146.48;;;24.10;;
48623;SDS011;34422;45.802;16.114;2022-10-31T06:40:16;77.45;;;22.48;;
48623;SDS011;34422;45.802;16.114;2022-10-31T06:42:43;34.78;;;18.08;;
48623;SDS011;34422;45.802;16.114;2022-10-31T06:45:10;32.72;;;17.83;;
48623;SDS011;34422;45.802;16.114;2022-10-31T06:47:36;38.67;;;17.98;;
48623;SDS011;34422;45.802;16.114;2022-10-31T06:50:03;74.53;;;21.70;;
48623;SDS011;34422;45.802;16.114;2022-10-31T06:52:30;162.80;;;25.38;;
48623;SDS011;34422;45.802;16.114;2022-10-31T06:54:57;113.43;;;21.25;;
48623;SDS011;34422;45.802;16.114;2022-10-31T06:57:24;116.65;;;21.98;;
48623;SDS011;34422;45.802;16.114;2022-10-31T06:59:51;56.47;;;16.17;;
48623;SDS011;34422;45.802;16.114;2022-10-31T07:02:18;111.80;;;19.45;;
48623;SDS011;34422;45.802;16.114;2022-10-31T07:04:44;78.30;;;20.40;;
48623;SDS011;34422;45.802;16.114;2022-10-31T07:07:11;105.63;;;20.73;;
48623;SDS011;34422;45.802;16.114;2022-10-31T07:09:38;109.63;;;21.45;;
48623;SDS011;34422;45.802;16.114;2022-10-31T07:12:05;51.63;;;17.77;;
48623;SDS011;34422;45.802;16.114;2022-10-31T07:14:32;69.00;;;19.67;;
48623;SDS011;34422;45.802;16.114;2022-10-31T07:16:58;42.83;;;18.52;;
48623;SDS011;34422;45.802;16.114;2022-10-31T07:19:25;49.30;;;18.63;;
48623;SDS011;34422;45.802;16.114;2022-10-31T07:21:52;80.97;;;20.08;;
48623;SDS011;34422;45.802;16.114;2022-10-31T07:24:19;35.40;;;17.63;;
48623;SDS011;34422;45.802;16.114;2022-10-31T07:26:45;85.50;;;22.67;;
48623;SDS011;34422;45.802;16.114;2022-10-31T07:29:13;83.65;;;19.02;;
48623;SDS011;34422;45.802;16.114;2022-10-31T07:31:40;37.03;;;18.30;;
48623;SDS011;34422;45.802;16.114;2022-10-31T07:34:07;37.20;;;18.15;;
48623;SDS011;34422;45.802;16.114;2022-10-31T07:36:34;30.88;;;17.40;;
48623;SDS011;34422;45.802;16.114;2022-10-31T07:39:00;41.53;;;18.02;;
48623;SDS011;34422;45.802;16.114;2022-10-31T07:41:28;75.97;;;20.42;;
48623;SDS011;34422;45.802;16.114;2022-10-31T07:43:55;144.25;;;24.67;;
48623;SDS011;34422;45.802;16.114;2022-10-31T07:46:22;81.32;;;20.20;;
48623;SDS011;34422;45.802;16.114;2022-10-31T07:48:49;177.10;;;22.95;;
48623;SDS011;34422;45.802;16.114;2022-10-31T07:51:15;64.75;;;19.77;;
48623;SDS011;34422;45.802;16.114;2022-10-31T07:53:42;74.72;;;22.33;;
48623;SDS011;34422;45.802;16.114;2022-10-31T07:56:09;32.17;;;18.20;;
48623;SDS011;34422;45.802;16.114;2022-10-31T07:58:36;30.75;;;18.20;;
48623;SDS011;34422;45.802;16.114;2022-10-31T08:01:02;35.25;;;18.73;;
48623;SDS011;34422;45.802;16.114;2022-10-31T08:03:29;60.05;;;29.90;;
48623;SDS011;34422;45.802;16.114;2022-10-31T08:05:56;66.05;;;22.95;;
48623;SDS011;34422;45.802;16.114;2022-10-31T08:08:23;52.53;;;16.35;;
48623;SDS011;34422;45.802;16.114;2022-10-31T08:10:50;69.68;;;18.25;;
48623;SDS011;34422;45.802;16.114;2022-10-31T08:13:17;36.85;;;14.35;;
48623;SDS011;34422;45.802;16.114;2022-10-31T08:15:44;36.72;;;17.23;;
48623;SDS011;34422;45.802;16.114;2022-10-31T08:18:16;59.58;;;16.67;;
48623;SDS011;34422;45.802;16.114;2022-10-31T08:20:43;48.30;;;16.20;;
48623;SDS011;34422;45.802;16.114;2022-10-31T08:23:11;37.10;;;14.88;;
48623;SDS011;34422;45.802;16.114;2022-10-31T08:25:38;137.80;;;20.40;;
48623;SDS011;34422;45.802;16.114;2022-10-31T08:28:06;34.83;;;15.90;;
48623;SDS011;34422;45.802;16.114;2022-10-31T08:30:35;85.97;;;19.10;;
48623;SDS011;34422;45.802;16.114;2022-10-31T08:33:04;44.45;;;18.15;;
48623;SDS011;34422;45.802;16.114;2022-10-31T08:35:38;34.55;;;20.52;;
48623;SDS011;34422;45.802;16.114;2022-10-31T08:38:06;116.63;;;20.70;;
48623;SDS011;34422;45.802;16.114;2022-10-31T08:40:35;57.03;;;17.85;;
48623;SDS011;34422;45.802;16.114;2022-10-31T08:43:06;62.17;;;18.00;;
48623;SDS011;34422;45.802;16.114;2022-10-31T08:45:40;24.77;;;16.75;;
48623;SDS011;34422;45.802;16.114;2022-10-31T08:48:11;52.25;;;19.70;;
48623;SDS011;34422;45.802;16.114;2022-10-31T08:50:39;106.93;;;21.27;;
48623;SDS011;34422;45.802;16.114;2022-10-31T08:53:09;48.20;;;20.20;;
48623;SDS011;34422;45.802;16.114;2022-10-31T08:55:38;54.35;;;18.98;;
48623;SDS011;34422;45.802;16.114;2022-10-31T08:58:07;39.40;;;19.42;;
48623;SDS011;34422;45.802;16.114;2022-10-31T09:00:37;29.23;;;18.38;;
48623;SDS011;34422;45.802;16.114;2022-10-31T09:03:04;39.10;;;19.08;;
48623;SDS011;34422;45.802;16.114;2022-10-31T09:05:34;33.20;;;18.98;;
48623;SDS011;34422;45.802;16.114;2022-10-31T09:08:02;26.02;;;19.10;;
48623;SDS011;34422;45.802;16.114;2022-10-31T09:10:31;27.70;;;19.40;;
48623;SDS011;34422;45.802;16.114;2022-10-31T09:12:59;108.32;;;21.65;;
48623;SDS011;34422;45.802;16.114;2022-10-31T09:15:27;95.68;;;22.80;;
48623;SDS011;34422;45.802;16.114;2022-10-31T09:17:55;42.05;;;20.55;;
48623;SDS011;34422;45.802;16.114;2022-10-31T09:20:22;32.95;;;19.48;;
48623;SDS011;34422;45.802;16.114;2022-10-31T09:22:55;26.50;;;17.00;;
48623;SDS011;34422;45.802;16.114;2022-10-31T09:25:26;45.30;;;19.73;;
48623;SDS011;34422;45.802;16.114;2022-10-31T09:27:57;25.45;;;18.17;;
48623;SDS011;34422;45.802;16.114;2022-10-31T09:30:25;25.70;;;18.30;;
48623;SDS011;34422;45.802;16.114;2022-10-31T09:33:03;28.73;;;19.50;;
48623;SDS011;34422;45.802;16.114;2022-10-31T09:35:36;32.25;;;19.73;;
48623;SDS011;34422;45.802;16.114;2022-10-31T09:38:04;34.00;;;19.83;;
48623;SDS011;34422;45.802;16.114;2022-10-31T09:45:43;30.63;;;18.02;;
48623;SDS011;34422;45.802;16.114;2022-10-31T09:48:27;40.15;;;20.02;;
48623;SDS011;34422;45.802;16.114;2022-10-31T09:51:00;28.50;;;19.23;;
48623;SDS011;34422;45.802;16.114;2022-10-31T09:53:39;33.92;;;19.13;;
48623;SDS011;34422;45.802;16.114;2022-10-31T09:56:15;33.10;;;19.42;;
48623;SDS011;34422;45.802;16.114;2022-10-31T09:58:46;30.55;;;19.45;;
48623;SDS011;34422;45.802;16.114;2022-10-31T10:01:19;37.05;;;22.50;;
48623;SDS011;34422;45.802;16.114;2022-10-31T10:04:01;32.28;;;21.13;;
48623;SDS011;34422;45.802;16.114;2022-10-31T10:06:37;39.30;;;23.33;;
48623;SDS011;34422;45.802;16.114;2022-10-31T10:09:09;32.33;;;21.83;;
48623;SDS011;34422;45.802;16.114;2022-10-31T10:11:49;31.85;;;21.40;;
48623;SDS011;34422;45.802;16.114;2022-10-31T10:14:23;32.17;;;21.70;;
48623;SDS011;34422;45.802;16.114;2022-10-31T10:23:11;26.67;;;18.60;;
48623;SDS011;34422;45.802;16.114;2022-10-31T10:26:12;28.00;;;18.80;;
48623;SDS011;34422;45.802;16.114;2022-10-31T10:28:44;36.92;;;22.63;;
48623;SDS011;34422;45.802;16.114;2022-10-31T10:31:20;33.97;;;21.75;;
48623;SDS011;34422;45.802;16.114;2022-10-31T10:33:59;45.88;;;21.20;;
48623;SDS011;34422;45.802;16.114;2022-10-31T10:36:37;37.30;;;24.85;;
48623;SDS011;34422;45.802;16.114;2022-10-31T10:39:20;28.63;;;20.73;;
48623;SDS011;34422;45.802;16.114;2022-10-31T10:41:51;32.63;;;20.67;;
48623;SDS011;34422;45.802;16.114;2022-10-31T10:44:38;32.00;;;21.73;;
48623;SDS011;34422;45.802;16.114;2022-10-31T10:50:06;49.35;;;31.48;;
48623;SDS011;34422;45.802;16.114;2022-10-31T10:52:49;40.65;;;24.52;;
48623;SDS011;34422;45.802;16.114;2022-10-31T10:58:05;32.22;;;21.25;;
48623;SDS011;34422;45.802;16.114;2022-10-31T11:00:41;29.75;;;20.20;;
48623;SDS011;34422;45.802;16.114;2022-10-31T11:03:16;29.42;;;21.45;;
48623;SDS011;34422;45.802;16.114;2022-10-31T11:05:52;32.97;;;21.95;;
48623;SDS011;34422;45.802;16.114;2022-10-31T11:08:37;33.80;;;22.92;;
48623;SDS011;34422;45.802;16.114;2022-10-31T11:13:48;28.13;;;19.52;;
48623;SDS011;34422;45.802;16.114;2022-10-31T11:19:07;33.78;;;22.25;;
48623;SDS011;34422;45.802;16.114;2022-10-31T11:21:43;44.03;;;27.88;;
48623;SDS011;34422;45.802;16.114;2022-10-31T11:24:21;37.63;;;25.35;;
48623;SDS011;34422;45.802;16.114;2022-10-31T11:27:02;36.53;;;25.02;;
48623;SDS011;34422;45.802;16.114;2022-10-31T11:29:38;37.78;;;24.77;;
48623;SDS011;34422;45.802;16.114;2022-10-31T11:32:05;41.78;;;27.10;;
48623;SDS011;34422;45.802;16.114;2022-10-31T11:34:32;36.28;;;24.42;;
48623;SDS011;34422;45.802;16.114;2022-10-31T11:39:41;36.42;;;23.33;;
48623;SDS011;34422;45.802;16.114;2022-10-31T11:42:09;35.50;;;22.95;;
48623;SDS011;34422;45.802;16.114;2022-10-31T11:44:36;37.50;;;25.00;;
48623;SDS011;34422;45.802;16.114;2022-10-31T11:47:13;34.40;;;23.98;;
48623;SDS011;34422;45.802;16.114;2022-10-31T11:49:43;32.22;;;22.90;;
48623;SDS011;34422;45.802;16.114;2022-10-31T11:52:22;34.30;;;24.20;;
48623;SDS011;34422;45.802;16.114;2022-10-31T11:55:15;38.28;;;28.00;;
48623;SDS011;34422;45.802;16.114;2022-10-31T11:57:55;34.65;;;24.00;;
48623;SDS011;34422;45.802;16.114;2022-10-31T12:00:24;35.17;;;24.50;;
48623;SDS011;34422;45.802;16.114;2022-10-31T12:05:39;30.30;;;23.13;;
48623;SDS011;34422;45.802;16.114;2022-10-31T12:08:11;35.97;;;26.85;;
48623;SDS011;34422;45.802;16.114;2022-10-31T12:13:35;36.03;;;26.42;;
48623;SDS011;34422;45.802;16.114;2022-10-31T12:18:50;37.92;;;26.30;;
48623;SDS011;34422;45.802;16.114;2022-10-31T12:21:48;50.75;;;32.90;;
48623;SDS011;34422;45.802;16.114;2022-10-31T12:26:57;41.33;;;27.00;;
48623;SDS011;34422;45.802;16.114;2022-10-31T12:29:44;42.05;;;27.52;;
48623;SDS011;34422;45.802;16.114;2022-10-31T12:40:03;48.47;;;29.60;;
48623;SDS011;34422;45.802;16.114;2022-10-31T12:48:07;47.17;;;28.67;;
48623;SDS011;34422;45.802;16.114;2022-10-31T12:50:57;49.05;;;31.23;;
48623;SDS011;34422;45.802;16.114;2022-10-31T12:54:11;47.25;;;30.23;;
48623;SDS011;34422;45.802;16.114;2022-10-31T13:01:55;53.38;;;33.13;;
48623;SDS011;34422;45.802;16.114;2022-10-31T13:07:14;54.67;;;34.33;;
48623;SDS011;34422;45.802;16.114;2022-10-31T13:09:52;56.28;;;34.40;;
48623;SDS011;34422;45.802;16.114;2022-10-31T13:12:27;57.53;;;35.83;;
48623;SDS011;34422;45.802;16.114;2022-10-31T13:14:58;48.03;;;32.03;;
48623;SDS011;34422;45.802;16.114;2022-10-31T13:17:30;51.85;;;33.72;;
48623;SDS011;34422;45.802;16.114;2022-10-31T13:20:46;56.70;;;36.10;;
48623;SDS011;34422;45.802;16.114;2022-10-31T13:23:37;48.40;;;32.13;;
48623;SDS011;34422;45.802;16.114;2022-10-31T13:25:55;52.13;;;33.78;;
48623;SDS011;34422;45.802;16.114;2022-10-31T13:28:34;44.08;;;28.85;;
48623;SDS011;34422;45.802;16.114;2022-10-31T13:31:18;52.30;;;32.92;;
48623;SDS011;34422;45.802;16.114;2022-10-31T13:33:49;47.45;;;33.13;;
48623;SDS011;34422;45.802;16.114;2022-10-31T13:36:43;51.88;;;32.08;;
48623;SDS011;34422;45.802;16.114;2022-10-31T13:39:23;46.50;;;30.70;;
48623;SDS011;34422;45.802;16.114;2022-10-31T13:42:01;47.17;;;29.83;;
48623;SDS011;34422;45.802;16.114;2022-10-31T13:44:30;43.65;;;30.17;;
48623;SDS011;34422;45.802;16.114;2022-10-31T13:47:04;58.25;;;43.22;;
48623;SDS011;34422;45.802;16.114;2022-10-31T13:49:48;50.53;;;34.40;;
48623;SDS011;34422;45.802;16.114;2022-10-31T13:52:21;44.20;;;31.95;;
48623;SDS011;34422;45.802;16.114;2022-10-31T13:54:51;43.80;;;31.80;;
48623;SDS011;34422;45.802;16.114;2022-10-31T14:02:31;45.90;;;30.90;;
48623;SDS011;34422;45.802;16.114;2022-10-31T14:05:02;47.13;;;31.63;;
48623;SDS011;34422;45.802;16.114;2022-10-31T14:07:44;60.00;;;31.98;;
48623;SDS011;34422;45.802;16.114;2022-10-31T14:10:29;49.65;;;31.52;;
48623;SDS011;34422;45.802;16.114;2022-10-31T14:15:56;47.42;;;30.30;;
48623;SDS011;34422;45.802;16.114;2022-10-31T14:18:32;47.13;;;32.07;;
48623;SDS011;34422;45.802;16.114;2022-10-31T14:21:12;41.42;;;29.48;;
48623;SDS011;34422;45.802;16.114;2022-10-31T14:23:42;44.80;;;29.65;;
48623;SDS011;34422;45.802;16.114;2022-10-31T14:28:50;41.88;;;28.23;;
48623;SDS011;34422;45.802;16.114;2022-10-31T14:31:30;45.15;;;28.33;;
48623;SDS011;34422;45.802;16.114;2022-10-31T14:34:06;47.28;;;32.03;;
48623;SDS011;34422;45.802;16.114;2022-10-31T14:37:02;43.58;;;29.90;;
48623;SDS011;34422;45.802;16.114;2022-10-31T14:47:39;45.70;;;30.90;;
48623;SDS011;34422;45.802;16.114;2022-10-31T14:53:01;46.30;;;32.13;;
48623;SDS011;34422;45.802;16.114;2022-10-31T14:55:30;51.63;;;34.40;;
48623;SDS011;34422;45.802;16.114;2022-10-31T14:57:59;45.17;;;30.27;;
48623;SDS011;34422;45.802;16.114;2022-10-31T15:00:30;46.78;;;29.75;;
48623;SDS011;34422;45.802;16.114;2022-10-31T15:03:15;41.85;;;29.52;;
48623;SDS011;34422;45.802;16.114;2022-10-31T15:05:46;43.90;;;29.58;;
48623;SDS011;34422;45.802;16.114;2022-10-31T15:10:57;49.22;;;31.60;;
48623;SDS011;34422;45.802;16.114;2022-10-31T15:13:24;43.53;;;29.73;;
48623;SDS011;34422;45.802;16.114;2022-10-31T15:15:51;44.83;;;29.15;;
48623;SDS011;34422;45.802;16.114;2022-10-31T15:18:25;49.20;;;30.33;;
48623;SDS011;34422;45.802;16.114;2022-10-31T15:20:54;59.67;;;33.78;;
48623;SDS011;34422;45.802;16.114;2022-10-31T15:23:23;51.78;;;34.20;;
48623;SDS011;34422;45.802;16.114;2022-10-31T15:25:59;55.85;;;34.97;;
48623;SDS011;34422;45.802;16.114;2022-10-31T15:28:27;63.75;;;35.40;;
48623;SDS011;34422;45.802;16.114;2022-10-31T15:30:55;56.70;;;33.38;;
48623;SDS011;34422;45.802;16.114;2022-10-31T15:33:28;79.10;;;42.72;;
48623;SDS011;34422;45.802;16.114;2022-10-31T15:35:57;75.80;;;39.13;;
48623;SDS011;34422;45.802;16.114;2022-10-31T15:38:26;63.70;;;38.92;;
48623;SDS011;34422;45.802;16.114;2022-10-31T15:40:55;74.85;;;41.60;;
48623;SDS011;34422;45.802;16.114;2022-10-31T15:43:48;68.15;;;38.90;;
48623;SDS011;34422;45.802;16.114;2022-10-31T15:46:15;74.13;;;40.38;;
48623;SDS011;34422;45.802;16.114;2022-10-31T15:48:45;62.47;;;37.30;;
48623;SDS011;34422;45.802;16.114;2022-10-31T15:51:14;55.63;;;33.58;;
48623;SDS011;34422;45.802;16.114;2022-10-31T15:53:50;86.95;;;35.85;;
48623;SDS011;34422;45.802;16.114;2022-10-31T15:56:20;211.73;;;42.75;;
48623;SDS011;34422;45.802;16.114;2022-10-31T15:58:52;116.30;;;36.50;;
48623;SDS011;34422;45.802;16.114;2022-10-31T16:03:58;236.77;;;41.58;;
48623;SDS011;34422;45.802;16.114;2022-10-31T16:06:34;280.73;;;51.85;;
48623;SDS011;34422;45.802;16.114;2022-10-31T16:09:01;115.65;;;38.33;;
48623;SDS011;34422;45.802;16.114;2022-10-31T16:11:33;80.75;;;36.10;;
48623;SDS011;34422;45.802;16.114;2022-10-31T16:14:04;186.73;;;44.33;;
48623;SDS011;34422;45.802;16.114;2022-10-31T16:16:39;107.22;;;38.63;;
48623;SDS011;34422;45.802;16.114;2022-10-31T16:22:05;223.23;;;47.22;;
48623;SDS011;34422;45.802;16.114;2022-10-31T16:24:35;214.38;;;49.75;;
48623;SDS011;34422;45.802;16.114;2022-10-31T16:27:21;253.40;;;53.85;;
48623;SDS011;34422;45.802;16.114;2022-10-31T16:29:55;221.25;;;54.88;;
48623;SDS011;34422;45.802;16.114;2022-10-31T16:32:36;204.00;;;61.13;;
48623;SDS011;34422;45.802;16.114;2022-10-31T16:35:24;153.20;;;50.92;;
48623;SDS011;34422;45.802;16.114;2022-10-31T16:37:58;94.55;;;42.25;;
48623;SDS011;34422;45.802;16.114;2022-10-31T16:40:24;71.95;;;38.58;;